NCAR-RAP Real-Time Weather Data

Output produced by METARs form (08 May 2021  01:43 UTC)
found at http://weather.rap.ucar.edu/surface/
 
KSNY 080053Z AUTO 12015KT 10SM CLR 21/09 A2982 RMK AO2 SLP070 T02060094 $
KSNY 072353Z AUTO 11015KT 10SM CLR 22/09 A2983 RMK AO2 SLP077 T02220094 10239 20194 56019 $
KSNY 072253Z AUTO 12016G23KT 10SM CLR 23/09 A2984 RMK AO2 PK WND 12029/2206 SLP080 T02280094
KSNY 072153Z AUTO 14015G26KT 10SM CLR 23/09 A2986 RMK AO2 PK WND 12026/2145 SLP083 T02330094
KSNY 072053Z AUTO 13016G22KT 10SM CLR 23/09 A2990 RMK AO2 SLP094 T02280094 56020
KSNY 071953Z AUTO 12012G21KT 10SM CLR 22/10 A2991 RMK AO2 SLP100 T02220100
KSNY 071853Z AUTO 14011KT 10SM CLR 21/09 A2993 RMK AO2 SLP108 T02060089
KSNY 071753Z AUTO 13011KT 10SM CLR 19/09 A2996 RMK AO2 SLP119 T01940089 10194 20028 58013 $
KSNY 071653Z AUTO 10009KT 10SM CLR 18/09 A2998 RMK AO2 SLP128 T01780089 $
KSNY 071553Z AUTO 08004KT 10SM CLR 16/08 A2999 RMK AO2 SLP135 T01610083 $
KSNY 071453Z AUTO 00000KT 10SM CLR 13/08 A3000 RMK AO2 SLP140 T01280078 58006 $
KSNY 071353Z AUTO 17005KT 10SM CLR 10/07 A3001 RMK AO2 SLP144 T01000072 $
KSNY 071253Z AUTO 13004KT 8SM CLR 06/04 A3002 RMK AO2 SLP145 T00610044 $
KSNY 071153Z AUTO 11006KT 9SM CLR 03/02 A3002 RMK AO2 SLP149 T00330022 10083 20033 $